Terminal Aerodrome Forecast
Issued by NWS

Home | Current Version | Previous Version | Text Only | Print | Product List | Glossary On
Versions: 1 2 3 4 5 6 7 8 9 10 11 12 13 14 15 16 17 18 19 20 21 22 23 24 25 26 27 28 29 30 31 32
000
FTUS44 KHGX 181941 AAA
TAFUTS
TAF AMD
KUTS 181941Z 1820/1918 15005KT P6SM SCT014
     FM182100 16009KT P6SM SCT035
     FM190200 17013KT P6SM SCT025
     FM190600 17014KT P6SM BKN015=

USA.gov is the U.S. government's official web portal to all federal, state and local government web resources and services.